Monday, June 25, 2018, 9:20 AM EDT
Back to Local

KLBE, Latrobe / Westmorland

Location: Latrobe, PA, United States Lat: 40.283
Local Time: 9:20 AM EDT (13:20 GMT) Lon: -79.4
Time Zone: US/Eastern Elev: 1184 ft

Show me the last for .
Show Decoded

2018-06-25 08:45 METAR KLBE 251245Z 03006KT 10SM SCT015 19/17 A3014 =
2018-06-25 07:45 METAR KLBE 251145Z 03006KT 10SM FEW010 SCT020 18/18 A3013 =
2018-06-25 06:45 METAR KLBE 251045Z 03006KT 10SM BKN015 17/17 A3011 =
2018-06-25 05:55 METAR KLBE 250955Z AUTO 00000KT 10SM OVC020 17/17 A3010 RMK AO2 =
2018-06-25 05:35 METAR KLBE 250935Z AUTO 32003KT 10SM SCT014 OVC020 17/17 A3009 RMK AO2 =
2018-06-25 05:15 METAR KLBE 250915Z AUTO 32004KT 10SM OVC016 18/18 A3008 RMK AO2 =
2018-06-25 04:55 METAR KLBE 250855Z AUTO 00000KT 10SM BKN018 OVC031 18/18 A3007 RMK AO2 =
2018-06-25 04:35 METAR KLBE 250835Z AUTO 00000KT 10SM SCT018 OVC030 18/18 A3006 RMK AO2 =
2018-06-25 04:15 METAR KLBE 250815Z AUTO 00000KT 7SM FEW010 OVC017 18/18 A3006 RMK AO2 =
2018-06-25 03:55 METAR KLBE 250755Z AUTO 00000KT 5SM BR SCT005 BKN010 OVC017 18/18 A3005 RMK AO2
                 =
2018-06-25 03:35 METAR KLBE 250735Z AUTO 00000KT 5SM BR SCT005 BKN011 BKN018 18/18 A3004 RMK AO2
                 =
2018-06-25 03:15 METAR KLBE 250715Z AUTO 00000KT 5SM BR SCT016 SCT024 18/18 A3004 RMK AO2 =
2018-06-25 02:55 METAR KLBE 250655Z AUTO 00000KT 6SM BR SCT024 SCT032 BKN044 18/18 A3004 RMK AO2
                 =
2018-06-25 02:35 METAR KLBE 250635Z AUTO 00000KT 8SM SCT023 BKN030 OVC034 18/18 A3003 RMK AO2 =
2018-06-25 02:15 METAR KLBE 250615Z AUTO 26004KT 10SM BKN026 OVC031 18/18 A3003 RMK AO2 =
2018-06-25 01:55 METAR KLBE 250555Z AUTO 22006KT 5SM BR BKN025 18/18 A3003 RMK AO2 =
2018-06-25 01:35 METAR KLBE 250535Z AUTO 21004KT 6SM BR BKN024 18/18 A3002 RMK AO2 =
2018-06-25 01:15 METAR KLBE 250515Z AUTO 21005KT 6SM BR FEW024 17/18 A3002 RMK AO2 =
2018-06-25 00:55 METAR KLBE 250455Z AUTO 22005KT 7SM CLR 17/17 A3002 RMK AO2 =
2018-06-25 00:35 METAR KLBE 250435Z AUTO 19003KT 10SM CLR 18/18 A3002 RMK AO2 =
2018-06-25 00:15 METAR KLBE 250415Z AUTO 00000KT 10SM CLR 18/18 A3001 RMK AO2 =
2018-06-24 23:55 METAR KLBE 250355Z AUTO 15003KT 10SM CLR 18/18 A3001 RMK AO2 =
2018-06-24 23:35 METAR KLBE 250335Z AUTO 17005KT 10SM CLR 18/18 A3001 RMK AO2 =
2018-06-24 23:15 METAR KLBE 250315Z AUTO 00000KT 9SM CLR 18/18 A3001 RMK AO2 =
2018-06-24 22:55 METAR KLBE 250255Z AUTO 00000KT 10SM CLR 18/18 A3001 RMK AO2 =
2018-06-24 22:35 METAR KLBE 250235Z AUTO 20004KT 10SM CLR 19/19 A3001 RMK AO2 =
2018-06-24 22:15 METAR KLBE 250215Z AUTO 19005KT 10SM CLR 19/19 A3001 RMK AO2 =
2018-06-24 21:50 METAR KLBE 250150Z 21003KT 10SM SCT075 19/19 A2999 =
2018-06-24 20:50 METAR KLBE 250050Z 29006KT 6SM -RA FEW020 BKN048 19/19 A2996 =
2018-06-24 19:50 METAR KLBE 242350Z 27007KT 10SM SCT050 BKN080 24/15 A2992 =
2018-06-24 18:50 METAR KLBE 242250Z 27012KT 10SM SKC 26/15 A2991 =
2018-06-24 17:50 METAR KLBE 242150Z 30010KT 10SM FEW055 26/14 A2992 =
2018-06-24 16:50 METAR KLBE 242050Z 29015KT 10SM FEW055 26/15 A2991 =
2018-06-24 15:50 METAR KLBE 241950Z 27012KT 10SM FEW034 SCT045 BKN090 26/19 A2990 =
2018-06-24 14:59 METAR KLBE 241859Z 28014KT 10SM SCT036 BKN070 25/18 A2988 =
2018-06-24 13:47 METAR KLBE 241747Z 28008KT 10SM SCT036 BKN060 24/19 A2989 =
2018-06-24 12:45 METAR KLBE 241645Z 25010KT 10SM SCT032 BKN050 25/19 A2991 =
2018-06-24 11:50 METAR KLBE 241550Z 24012KT 10SM BKN035 24/19 A2991 =
2018-06-24 10:50 METAR KLBE 241450Z 24014KT 10SM SCT024 BKN042 23/19 A2990 =
2018-06-24 09:50 METAR KLBE 241350Z 24010KT 10SM SCT016 BKN032 23/20 A2990 =

Support USWX by starting your Amazon purchase here.